createdAt,value
2018-06-15T00:00:10.436Z,12.70
2018-06-15T00:02:38.824Z,12.60
2018-06-15T00:05:07.471Z,12.60
2018-06-15T00:07:35.831Z,12.70
2018-06-15T00:10:04.352Z,12.80
2018-06-15T00:12:33.016Z,12.90
2018-06-15T00:15:01.363Z,12.90
2018-06-15T00:17:30.288Z,12.90
2018-06-15T00:19:58.915Z,12.80
2018-06-15T00:22:27.267Z,12.80
2018-06-15T00:24:56.239Z,12.80
2018-06-15T00:27:24.851Z,12.90
2018-06-15T00:29:53.760Z,12.90
2018-06-15T00:32:22.125Z,12.90
2018-06-15T00:34:50.725Z,12.80
2018-06-15T00:37:19.440Z,12.80
2018-06-15T00:39:47.791Z,12.80
2018-06-15T00:42:16.131Z,12.70
2018-06-15T00:44:44.806Z,12.70
2018-06-15T00:47:13.195Z,12.50
2018-06-15T00:49:42.206Z,12.40
2018-06-15T00:52:10.859Z,12.30
2018-06-15T00:54:39.208Z,12.40
2018-06-15T00:57:19.595Z,12.40
2018-06-15T00:59:48.283Z,12.30
2018-06-15T01:02:16.661Z,12.20
2018-06-15T01:04:45.034Z,12.10
2018-06-15T01:07:13.743Z,12.00
2018-06-15T01:09:42.931Z,11.90
2018-06-15T01:12:11.592Z,11.90
2018-06-15T01:14:40.246Z,11.80
2018-06-15T01:17:08.932Z,11.80
2018-06-15T01:19:37.311Z,11.80
2018-06-15T01:22:05.943Z,11.70
2018-06-15T01:24:34.403Z,11.70
2018-06-15T01:27:02.771Z,11.80
2018-06-15T01:29:31.695Z,11.90
2018-06-15T01:32:00.408Z,12.00
2018-06-15T01:34:29.087Z,12.10
2018-06-15T01:36:57.749Z,12.20
2018-06-15T01:39:26.646Z,12.20
2018-06-15T01:41:55.008Z,12.30
2018-06-15T01:44:24.211Z,12.20
2018-06-15T01:46:52.660Z,12.20
2018-06-15T01:49:22.765Z,12.30
2018-06-15T01:51:53.619Z,12.30
2018-06-15T01:54:23.593Z,12.40
2018-06-15T01:56:53.729Z,12.50
2018-06-15T02:01:51.896Z,12.60
2018-06-15T02:04:20.576Z,12.70
2018-06-15T02:06:48.968Z,12.70
2018-06-15T02:09:17.855Z,12.80
2018-06-15T02:11:46.480Z,12.80
2018-06-15T02:14:15.140Z,12.90
2018-06-15T02:16:43.500Z,12.90
2018-06-15T02:19:11.884Z,12.80
2018-06-15T02:21:40.565Z,12.80
2018-06-15T02:24:09.283Z,12.70
2018-06-15T02:26:37.667Z,12.70
2018-06-15T02:29:06.255Z,12.60
2018-06-15T02:31:34.892Z,12.50
2018-06-15T02:34:03.242Z,11.90
2018-06-15T02:36:31.624Z,11.80
2018-06-15T02:38:59.986Z,11.50
2018-06-15T02:41:28.375Z,11.50
2018-06-15T02:43:56.872Z,11.60
2018-06-15T02:46:25.257Z,11.60
2018-06-15T02:48:54.164Z,11.40
2018-06-15T02:51:22.819Z,11.30
2018-06-15T02:53:51.165Z,11.30
2018-06-15T02:56:19.564Z,11.30
2018-06-15T02:58:47.919Z,11.50
2018-06-15T03:01:17.096Z,11.70
2018-06-15T03:03:45.588Z,11.80
2018-06-15T03:06:13.935Z,11.70
2018-06-15T03:08:42.585Z,11.70
2018-06-15T03:11:11.491Z,11.80
2018-06-15T03:13:40.138Z,11.90
2018-06-15T03:16:08.519Z,12.00
2018-06-15T03:18:37.127Z,12.10
2018-06-15T03:21:06.020Z,12.20
2018-06-15T03:23:34.716Z,12.30
2018-06-15T03:26:03.627Z,12.30
2018-06-15T03:28:31.983Z,12.30
2018-06-15T03:31:00.871Z,12.30
2018-06-15T03:33:29.845Z,12.30
2018-06-15T03:35:58.211Z,12.30
2018-06-15T03:38:27.195Z,12.10
2018-06-15T03:40:55.820Z,11.60
2018-06-15T03:43:24.451Z,11.30
2018-06-15T03:45:53.231Z,11.30
2018-06-15T03:48:21.659Z,11.20
2018-06-15T03:50:50.035Z,11.30
2018-06-15T03:53:18.891Z,11.30
2018-06-15T03:55:47.249Z,11.40
2018-06-15T03:58:15.663Z,11.60
2018-06-15T04:00:44.049Z,11.80
2018-06-15T04:03:12.611Z,11.90
2018-06-15T04:05:41.435Z,11.90
2018-06-15T04:08:10.068Z,12.00
2018-06-15T04:10:38.435Z,12.10
2018-06-15T04:13:06.834Z,12.20
2018-06-15T04:15:35.492Z,12.40
2018-06-15T04:18:05.595Z,12.50
2018-06-15T04:20:35.560Z,12.50
2018-06-15T04:23:03.918Z,12.50
2018-06-15T04:25:32.667Z,12.40
2018-06-15T04:28:01.043Z,12.40
2018-06-15T04:30:29.938Z,12.40
2018-06-15T04:32:58.648Z,12.40
2018-06-15T04:35:27.812Z,12.60
2018-06-15T04:37:56.175Z,12.70
2018-06-15T04:40:26.747Z,12.80
2018-06-15T04:42:57.530Z,13.00
2018-06-15T04:45:25.907Z,12.80
2018-06-15T04:47:54.823Z,12.80
2018-06-15T04:50:23.179Z,12.90
2018-06-15T04:52:51.916Z,12.90
2018-06-15T04:55:20.574Z,13.00
2018-06-15T04:57:56.415Z,13.10
2018-06-15T05:00:25.453Z,13.30
2018-06-15T05:02:54.159Z,13.40
2018-06-15T05:05:22.569Z,13.50
2018-06-15T05:07:50.915Z,13.50
2018-06-15T05:12:47.952Z,13.70
2018-06-15T05:15:16.322Z,13.80
2018-06-15T05:17:44.991Z,14.00
2018-06-15T05:20:13.615Z,14.20
2018-06-15T05:22:42.567Z,14.50
2018-06-15T05:25:11.253Z,14.70
2018-06-15T05:27:39.964Z,14.80
2018-06-15T05:30:08.623Z,14.90
2018-06-15T05:32:37.565Z,15.20
2018-06-15T05:35:06.075Z,15.30
2018-06-15T05:37:34.475Z,15.40
2018-06-15T05:40:03.204Z,15.60
2018-06-15T05:42:32.196Z,15.70
2018-06-15T05:45:01.048Z,15.80
2018-06-15T05:47:29.731Z,15.90
2018-06-15T05:49:58.880Z,16.10
2018-06-15T05:52:27.215Z,16.20
2018-06-15T05:54:55.619Z,16.40
2018-06-15T05:57:24.271Z,16.50
2018-06-15T05:59:53.155Z,16.50
2018-06-15T06:02:21.867Z,16.60
2018-06-15T06:04:50.379Z,16.70
2018-06-15T06:07:19.051Z,16.90
2018-06-15T06:09:47.756Z,17.00
2018-06-15T06:12:17.019Z,17.10
2018-06-15T06:14:45.891Z,17.30
2018-06-15T06:17:14.601Z,17.30
2018-06-15T06:19:43.740Z,17.50
2018-06-15T06:22:12.938Z,17.80
2018-06-15T06:24:41.576Z,17.90
2018-06-15T06:27:10.274Z,18.00
2018-06-15T06:29:38.954Z,18.20
2018-06-15T06:32:07.323Z,18.40
2018-06-15T06:34:35.923Z,18.50
2018-06-15T06:37:04.322Z,18.60
2018-06-15T06:39:32.945Z,18.80
2018-06-15T06:42:01.833Z,19.00
2018-06-15T06:44:30.205Z,19.10
2018-06-15T06:46:58.580Z,19.30
2018-06-15T06:49:27.511Z,19.50
2018-06-15T06:51:56.179Z,19.50
2018-06-15T06:54:24.531Z,19.60
2018-06-15T06:56:53.543Z,19.60
2018-06-15T06:59:22.223Z,19.50
2018-06-15T07:01:50.938Z,19.60
2018-06-15T07:04:19.288Z,19.60
2018-06-15T07:06:48.197Z,19.70
2018-06-15T07:09:17.091Z,19.60
2018-06-15T07:11:45.696Z,19.60
2018-06-15T07:14:14.408Z,19.70
2018-06-15T07:16:42.760Z,19.80
2018-06-15T07:19:11.927Z,19.80
2018-06-15T07:21:40.324Z,19.90
2018-06-15T07:24:09.207Z,20.10
2018-06-15T07:26:37.895Z,20.20
2018-06-15T07:29:06.282Z,20.30
2018-06-15T07:31:34.647Z,20.40
2018-06-15T07:34:03.016Z,20.60
2018-06-15T07:36:31.718Z,20.70
2018-06-15T07:39:00.360Z,20.80
2018-06-15T07:41:28.959Z,21.10
2018-06-15T07:43:57.432Z,21.40
2018-06-15T07:46:25.831Z,21.30
2018-06-15T07:48:54.503Z,21.40
2018-06-15T07:51:23.149Z,21.70
2018-06-15T07:53:51.503Z,21.90
2018-06-15T07:56:20.451Z,22.10
2018-06-15T07:58:49.142Z,22.00
2018-06-15T08:01:18.159Z,22.10
2018-06-15T08:03:52.368Z,22.40
2018-06-15T08:06:21.040Z,22.50
2018-06-15T08:08:49.715Z,22.40
2018-06-15T08:11:18.355Z,22.50
2018-06-15T08:13:47.055Z,21.90
2018-06-15T08:16:15.425Z,22.00
2018-06-15T08:21:12.134Z,22.40
2018-06-15T08:23:40.507Z,22.50
2018-06-15T08:26:09.192Z,22.90
2018-06-15T08:28:37.827Z,22.90
2018-06-15T08:31:06.183Z,22.00
2018-06-15T08:33:34.820Z,23.10
2018-06-15T08:36:03.446Z,23.10
2018-06-15T08:38:31.847Z,23.60
2018-06-15T08:41:00.551Z,24.00
2018-06-15T08:48:25.436Z,23.20
2018-06-15T08:50:54.301Z,23.70
2018-06-15T08:53:22.983Z,23.80
2018-06-15T08:55:51.444Z,23.20
2018-06-15T08:58:20.055Z,22.00
2018-06-15T09:00:48.839Z,22.10
2018-06-15T09:03:17.287Z,22.40
2018-06-15T09:05:45.652Z,21.30
2018-06-15T09:08:14.323Z,21.10
2018-06-15T09:10:42.680Z,21.30
2018-06-15T09:13:11.573Z,21.30
2018-06-15T09:15:39.994Z,21.90
2018-06-15T09:18:09.199Z,21.80
2018-06-15T09:20:37.569Z,22.10
2018-06-15T09:23:06.463Z,22.40
2018-06-15T09:25:34.995Z,22.60
2018-06-15T09:28:03.627Z,22.90
2018-06-15T09:30:31.987Z,22.80
2018-06-15T09:35:28.690Z,23.00
2018-06-15T09:37:57.135Z,23.40
2018-06-15T09:40:26.064Z,23.50
2018-06-15T09:42:54.419Z,23.60
2018-06-15T09:45:22.792Z,23.90
2018-06-15T09:47:51.185Z,24.40
2018-06-15T09:50:19.779Z,24.20
2018-06-15T09:52:48.144Z,24.50
2018-06-15T09:55:16.520Z,24.90
2018-06-15T09:57:45.119Z,25.10
2018-06-15T10:00:17.733Z,24.80
2018-06-15T10:02:46.383Z,24.80
2018-06-15T10:05:15.075Z,25.10
2018-06-15T10:07:43.443Z,25.30
2018-06-15T10:10:11.801Z,25.50
2018-06-15T10:12:40.184Z,25.30
2018-06-15T10:15:09.121Z,25.60
2018-06-15T10:17:37.780Z,25.90
2018-06-15T10:20:06.166Z,25.50
2018-06-15T10:22:34.807Z,24.90
2018-06-15T10:25:03.215Z,24.80
2018-06-15T10:27:31.563Z,24.70
2018-06-15T10:32:28.688Z,25.50
2018-06-15T10:34:57.040Z,25.80
2018-06-15T10:37:26.208Z,26.10
2018-06-15T10:39:54.561Z,26.20
2018-06-15T10:42:23.200Z,26.50
2018-06-15T10:44:51.563Z,26.10
2018-06-15T10:47:20.632Z,26.00
2018-06-15T10:49:49.361Z,26.10
2018-06-15T10:52:17.728Z,26.20
2018-06-15T10:54:46.079Z,26.50
2018-06-15T10:57:14.767Z,26.80
2018-06-15T10:59:43.420Z,27.10
2018-06-15T11:02:12.040Z,27.40
2018-06-15T11:07:08.495Z,27.80
2018-06-15T11:09:36.879Z,27.70
2018-06-15T11:12:06.050Z,27.80
2018-06-15T11:17:02.483Z,27.60
2018-06-15T11:19:30.843Z,27.60
2018-06-15T11:21:59.231Z,27.10
2018-06-15T11:24:27.592Z,26.90
2018-06-15T11:26:55.963Z,27.40
2018-06-15T11:29:24.412Z,27.60
2018-06-15T11:31:53.354Z,26.70
2018-06-15T11:34:21.705Z,26.30
2018-06-15T11:36:50.211Z,26.30
2018-06-15T11:39:18.832Z,26.40
2018-06-15T11:41:47.486Z,27.00
2018-06-15T11:44:15.958Z,27.60
2018-06-15T11:46:44.323Z,28.30
2018-06-15T11:49:28.655Z,27.90
2018-06-15T11:51:57.276Z,27.30
2018-06-15T11:54:26.258Z,26.80
2018-06-15T11:56:54.936Z,27.30
2018-06-15T11:59:23.286Z,28.30
2018-06-15T12:01:51.977Z,28.70
2018-06-15T12:04:20.683Z,28.50
2018-06-15T12:06:49.384Z,28.30
2018-06-15T12:09:18.052Z,28.40
2018-06-15T12:11:46.430Z,28.30
2018-06-15T12:14:15.068Z,27.30
2018-06-15T12:19:11.929Z,28.30
2018-06-15T12:21:40.758Z,28.60
2018-06-15T12:24:09.132Z,29.30
2018-06-15T12:26:38.407Z,30.00
2018-06-15T12:29:08.088Z,29.90
2018-06-15T12:31:37.012Z,28.90
2018-06-15T12:34:05.773Z,28.40
2018-06-15T12:36:34.576Z,28.30
2018-06-15T12:41:33.591Z,29.40
2018-06-15T12:44:02.212Z,29.30
2018-06-15T12:46:30.936Z,29.80
2018-06-15T12:48:59.528Z,30.10
2018-06-15T12:51:27.884Z,30.20
2018-06-15T12:53:56.793Z,29.50
2018-06-15T12:56:25.173Z,29.20
2018-06-15T12:58:53.733Z,28.80
2018-06-15T13:01:22.148Z,28.40
2018-06-15T13:03:50.868Z,28.10
2018-06-15T13:06:20.147Z,27.60
2018-06-15T13:08:48.855Z,26.50
2018-06-15T13:11:18.343Z,25.70
2018-06-15T13:13:46.994Z,25.60
2018-06-15T13:16:15.956Z,25.40
2018-06-15T13:18:45.344Z,25.40
2018-06-15T13:21:15.359Z,25.40
2018-06-15T13:23:44.804Z,25.20
2018-06-15T13:26:14.578Z,25.20
2018-06-15T13:28:43.515Z,25.10
2018-06-15T13:31:14.121Z,24.90
2018-06-15T13:33:42.604Z,25.10
2018-06-15T13:36:12.034Z,25.10
2018-06-15T13:41:11.800Z,25.70
2018-06-15T13:43:40.585Z,25.90
2018-06-15T13:46:10.135Z,25.60
2018-06-15T13:48:39.120Z,25.60
2018-06-15T13:51:08.307Z,25.40
2018-06-15T13:53:36.739Z,25.40
2018-06-15T13:56:05.891Z,24.90
2018-06-15T13:58:34.306Z,24.90
2018-06-15T14:01:04.097Z,25.10
2018-06-15T14:03:33.144Z,25.30
2018-06-15T14:06:01.879Z,25.10
2018-06-15T14:08:30.280Z,25.00
2018-06-15T14:10:58.896Z,25.10
2018-06-15T14:13:28.895Z,24.90
2018-06-15T14:15:57.383Z,24.80
2018-06-15T14:18:26.332Z,24.80
2018-06-15T14:20:54.875Z,24.50
2018-06-15T14:23:23.661Z,24.40
2018-06-15T14:25:52.258Z,24.50
2018-06-15T14:28:20.755Z,24.60
2018-06-15T14:30:49.223Z,24.70
2018-06-15T14:33:17.875Z,24.50
2018-06-15T14:35:47.560Z,24.60
2018-06-15T14:38:21.935Z,24.60
2018-06-15T14:40:50.796Z,24.60
2018-06-15T14:43:19.579Z,24.30
2018-06-15T14:45:47.984Z,24.40
2018-06-15T14:48:16.403Z,24.50
2018-06-15T14:50:44.999Z,24.70
2018-06-15T14:53:19.480Z,24.60
2018-06-15T14:55:48.471Z,24.80
2018-06-15T14:58:16.851Z,24.80
2018-06-15T15:00:45.587Z,24.70
2018-06-15T15:03:14.627Z,24.60
2018-06-15T15:05:43.163Z,24.50
2018-06-15T15:08:11.624Z,24.50
2018-06-15T15:10:40.431Z,24.30
2018-06-15T15:13:09.609Z,24.40
2018-06-15T15:15:38.327Z,24.60
2018-06-15T15:18:07.131Z,24.70
2018-06-15T15:20:38.191Z,24.80
2018-06-15T15:23:06.615Z,24.70
2018-06-15T15:25:34.963Z,24.60
2018-06-15T15:28:04.531Z,24.60
2018-06-15T15:30:33.279Z,24.60
2018-06-15T15:33:01.929Z,24.80
2018-06-15T15:35:31.191Z,24.80
2018-06-15T15:37:59.955Z,24.80
2018-06-15T15:40:28.352Z,24.60
2018-06-15T15:42:57.664Z,24.70
2018-06-15T15:45:26.455Z,24.90
2018-06-15T15:47:54.833Z,24.80
2018-06-15T15:50:23.742Z,24.50
2018-06-15T15:52:52.566Z,24.40
2018-06-15T15:55:23.300Z,24.50
2018-06-15T15:57:52.534Z,24.70
2018-06-15T16:00:21.431Z,24.80
2018-06-15T16:02:50.195Z,24.70
2018-06-15T16:05:18.912Z,24.60
2018-06-15T16:07:47.873Z,24.60
2018-06-15T16:10:17.341Z,24.20
2018-06-15T16:12:47.402Z,24.10
2018-06-15T16:15:16.777Z,23.80
2018-06-15T16:20:13.883Z,23.60
2018-06-15T16:22:42.863Z,23.40
2018-06-15T16:25:11.271Z,23.00
2018-06-15T16:27:39.947Z,22.90
2018-06-15T16:30:09.169Z,22.90
2018-06-15T16:32:37.985Z,22.90
2018-06-15T16:35:06.951Z,22.90
2018-06-15T16:40:03.891Z,23.00
2018-06-15T16:42:32.256Z,23.00
2018-06-15T16:45:01.046Z,22.90
2018-06-15T16:47:30.168Z,22.90
2018-06-15T16:49:58.544Z,22.90
2018-06-15T16:52:27.235Z,22.90
2018-06-15T16:54:55.673Z,23.00
2018-06-15T16:57:24.379Z,23.10
2018-06-15T16:59:52.991Z,23.10
2018-06-15T17:02:21.634Z,23.20
2018-06-15T17:04:50.431Z,23.00
2018-06-15T17:07:18.806Z,23.00
2018-06-15T17:09:47.502Z,23.00
2018-06-15T17:12:15.873Z,23.00
2018-06-15T17:14:44.496Z,23.00
2018-06-15T17:17:12.851Z,23.00
2018-06-15T17:19:41.289Z,22.90
2018-06-15T17:22:10.155Z,22.90
2018-06-15T17:24:40.648Z,22.90
2018-06-15T17:27:09.639Z,22.90
2018-06-15T17:29:38.311Z,22.90
2018-06-15T17:32:07.295Z,22.90
2018-06-15T17:34:37.171Z,22.90
2018-06-15T17:37:05.871Z,22.90
2018-06-15T17:39:34.235Z,22.80
2018-06-15T17:42:02.609Z,22.80
2018-06-15T17:44:31.355Z,22.70
2018-06-15T17:46:59.727Z,22.70
2018-06-15T17:49:29.147Z,22.60
2018-06-15T17:51:57.804Z,22.60
2018-06-15T17:54:26.719Z,22.50
2018-06-15T17:56:55.272Z,22.40
2018-06-15T17:59:23.712Z,22.40
2018-06-15T18:01:52.077Z,22.40
2018-06-15T18:04:20.504Z,22.40
2018-06-15T18:06:49.303Z,22.30
2018-06-15T18:09:18.094Z,22.20
2018-06-15T18:11:46.880Z,22.20
2018-06-15T18:14:15.396Z,22.20
2018-06-15T18:16:44.056Z,22.10
2018-06-15T18:19:12.695Z,22.00
2018-06-15T18:21:41.197Z,21.90
2018-06-15T18:24:09.932Z,21.90
2018-06-15T18:26:39.122Z,21.90
2018-06-15T18:29:09.339Z,21.80
2018-06-15T18:31:38.230Z,21.80
2018-06-15T18:34:07.135Z,21.70
2018-06-15T18:36:35.818Z,21.70
2018-06-15T18:39:06.711Z,21.50
2018-06-15T18:41:35.504Z,21.50
2018-06-15T18:44:03.941Z,21.40
2018-06-15T18:46:32.887Z,21.30
2018-06-15T18:49:01.508Z,21.20
2018-06-15T18:51:29.887Z,21.20
2018-06-15T18:53:58.483Z,21.10
2018-06-15T18:56:26.894Z,21.00
2018-06-15T18:58:55.263Z,21.00
2018-06-15T19:01:23.631Z,20.90
2018-06-15T19:03:52.268Z,20.80
2018-06-15T19:06:21.487Z,20.50
2018-06-15T19:08:50.159Z,20.30
2018-06-15T19:11:18.510Z,20.20
2018-06-15T19:13:47.399Z,20.10
2018-06-15T19:16:16.630Z,20.00
2018-06-15T19:18:45.278Z,20.00
2018-06-15T19:21:13.935Z,19.90
2018-06-15T19:23:42.609Z,19.80
2018-06-15T19:26:10.984Z,19.70
2018-06-15T19:28:39.372Z,19.60
2018-06-15T19:31:07.799Z,19.40
2018-06-15T19:33:36.415Z,19.20
2018-06-15T19:38:33.544Z,19.10
2018-06-15T19:41:01.939Z,19.00
2018-06-15T19:43:30.488Z,19.00
2018-06-15T19:45:59.079Z,18.90
2018-06-15T19:48:27.460Z,18.80
2018-06-15T19:50:56.191Z,18.90
2018-06-15T19:53:24.566Z,18.80
2018-06-15T19:58:21.376Z,18.80
2018-06-15T20:00:50.195Z,18.70
2018-06-15T20:03:19.176Z,18.60
2018-06-15T20:05:48.379Z,18.50
2018-06-15T20:08:17.283Z,18.50
2018-06-15T20:10:46.131Z,18.40
2018-06-15T20:13:14.497Z,18.40
2018-06-15T20:15:42.847Z,18.40
2018-06-15T20:18:11.519Z,18.20
2018-06-15T20:23:07.956Z,18.10
2018-06-15T20:25:36.319Z,18.00
2018-06-15T20:28:04.718Z,17.90
2018-06-15T20:30:33.350Z,17.90
2018-06-15T20:33:01.732Z,18.00
2018-06-15T20:35:30.391Z,17.90
2018-06-15T20:37:59.027Z,17.90
2018-06-15T20:40:27.747Z,17.70
2018-06-15T20:42:56.423Z,17.60
2018-06-15T20:45:24.762Z,17.60
2018-06-15T20:47:53.235Z,17.60
2018-06-15T20:50:21.883Z,17.50
2018-06-15T20:52:50.512Z,17.50
2018-06-15T20:55:19.153Z,17.40
2018-06-15T20:57:47.804Z,17.40
2018-06-15T21:00:16.280Z,17.30
2018-06-15T21:02:45.147Z,17.20
2018-06-15T21:05:13.503Z,17.10
2018-06-15T21:07:41.928Z,17.10
2018-06-15T21:10:10.403Z,17.10
2018-06-15T21:12:39.072Z,17.00
2018-06-15T21:15:07.755Z,16.80
2018-06-15T21:17:36.483Z,16.80
2018-06-15T21:20:05.152Z,16.70
2018-06-15T21:22:34.055Z,16.60
2018-06-15T21:25:02.428Z,16.30
2018-06-15T21:27:30.870Z,16.30
2018-06-15T21:29:59.767Z,16.40
2018-06-15T21:32:28.244Z,16.40
2018-06-15T21:34:56.594Z,16.40
2018-06-15T21:37:25.260Z,16.40
2018-06-15T21:39:53.639Z,16.30
2018-06-15T21:42:21.991Z,16.20
2018-06-15T21:44:50.615Z,16.00
2018-06-15T21:47:18.964Z,16.00
2018-06-15T21:49:47.335Z,16.00
2018-06-15T21:52:15.691Z,15.90
2018-06-15T21:54:44.368Z,15.70
2018-06-15T21:57:12.739Z,15.70
2018-06-15T21:59:41.128Z,15.60
2018-06-15T22:02:09.619Z,15.60
2018-06-15T22:04:37.991Z,15.60
2018-06-15T22:07:06.979Z,15.50
2018-06-15T22:09:36.124Z,15.40
2018-06-15T22:12:04.502Z,15.40
2018-06-15T22:14:33.207Z,15.40
2018-06-15T22:19:29.635Z,15.30
2018-06-15T22:21:58.278Z,15.20
2018-06-15T22:24:26.944Z,15.20
2018-06-15T22:26:55.359Z,15.30
2018-06-15T22:29:24.075Z,15.30
2018-06-15T22:31:52.706Z,15.20
2018-06-15T22:34:21.112Z,15.10
2018-06-15T22:36:49.468Z,14.80
2018-06-15T22:39:17.851Z,14.60
2018-06-15T22:41:46.839Z,14.60
2018-06-15T22:44:15.211Z,14.60
2018-06-15T22:46:43.609Z,14.60
2018-06-15T22:49:12.794Z,14.50
2018-06-15T22:51:41.911Z,14.60
2018-06-15T22:54:10.374Z,14.60
2018-06-15T22:56:39.763Z,14.60
2018-06-15T22:59:08.131Z,14.70
2018-06-15T23:01:36.755Z,14.70
2018-06-15T23:04:05.159Z,14.70
2018-06-15T23:06:34.205Z,14.60
2018-06-15T23:09:02.915Z,14.60
2018-06-15T23:11:31.269Z,14.60
2018-06-15T23:13:59.851Z,14.60
2018-06-15T23:16:28.839Z,14.50
2018-06-15T23:18:57.731Z,14.40
2018-06-15T23:21:26.620Z,14.30
2018-06-15T23:23:55.310Z,14.30
2018-06-15T23:26:24.503Z,14.30
2018-06-15T23:28:53.495Z,14.30
2018-06-15T23:31:22.496Z,14.40
2018-06-15T23:33:51.632Z,14.40
2018-06-15T23:36:19.984Z,14.30
2018-06-15T23:38:48.651Z,14.30
2018-06-15T23:41:17.659Z,14.30
2018-06-15T23:43:46.535Z,14.20
2018-06-15T23:46:14.959Z,13.90
2018-06-15T23:48:43.347Z,13.90
2018-06-15T23:51:11.691Z,13.90
2018-06-15T23:53:40.060Z,13.90
2018-06-15T23:56:08.683Z,13.90
2018-06-15T23:58:37.291Z,14.00
